sensor_id;sensor_type;location;lat;lon;timestamp;temperature;humidity
69006;SHT31;56061;51.748;19.620;2022-12-18T00:01:21;-3.57;87.57
69006;SHT31;56061;51.748;19.620;2022-12-18T00:03:53;-3.58;87.61
69006;SHT31;56061;51.748;19.620;2022-12-18T00:06:22;-3.57;87.71
69006;SHT31;56061;51.748;19.620;2022-12-18T00:08:50;-3.55;87.80
69006;SHT31;56061;51.748;19.620;2022-12-18T00:11:18;-3.54;87.80
69006;SHT31;56061;51.748;19.620;2022-12-18T00:13:47;-3.55;87.77
69006;SHT31;56061;51.748;19.620;2022-12-18T00:16:16;-3.59;87.61
69006;SHT31;56061;51.748;19.620;2022-12-18T00:18:47;-3.66;87.50
69006;SHT31;56061;51.748;19.620;2022-12-18T00:21:15;-3.72;87.55
69006;SHT31;56061;51.748;19.620;2022-12-18T00:23:43;-3.74;87.67
69006;SHT31;56061;51.748;19.620;2022-12-18T00:26:12;-3.73;87.71
69006;SHT31;56061;51.748;19.620;2022-12-18T00:28:43;-3.70;87.78
69006;SHT31;56061;51.748;19.620;2022-12-18T00:31:12;-3.68;87.79
69006;SHT31;56061;51.748;19.620;2022-12-18T00:33:46;-3.64;87.85
69006;SHT31;56061;51.748;19.620;2022-12-18T00:36:18;-3.61;87.92
69006;SHT31;56061;51.748;19.620;2022-12-18T00:38:49;-3.60;87.81
69006;SHT31;56061;51.748;19.620;2022-12-18T00:41:16;-3.60;87.90
69006;SHT31;56061;51.748;19.620;2022-12-18T00:44:05;-3.58;87.88
69006;SHT31;56061;51.748;19.620;2022-12-18T00:46:33;-3.62;87.78
69006;SHT31;56061;51.748;19.620;2022-12-18T00:49:00;-3.64;87.79
69006;SHT31;56061;51.748;19.620;2022-12-18T00:51:26;-3.64;87.70
69006;SHT31;56061;51.748;19.620;2022-12-18T00:53:53;-3.66;87.70
69006;SHT31;56061;51.748;19.620;2022-12-18T00:56:19;-3.64;87.79
69006;SHT31;56061;51.748;19.620;2022-12-18T00:58:46;-3.62;87.84
69006;SHT31;56061;51.748;19.620;2022-12-18T01:01:12;-3.63;87.85
69006;SHT31;56061;51.748;19.620;2022-12-18T01:03:40;-3.62;87.91
69006;SHT31;56061;51.748;19.620;2022-12-18T01:06:08;-3.65;87.86
69006;SHT31;56061;51.748;19.620;2022-12-18T01:08:38;-3.67;87.98
69006;SHT31;56061;51.748;19.620;2022-12-18T01:11:09;-3.69;88.06
69006;SHT31;56061;51.748;19.620;2022-12-18T01:13:38;-3.71;88.00
69006;SHT31;56061;51.748;19.620;2022-12-18T01:16:06;-3.70;88.05
69006;SHT31;56061;51.748;19.620;2022-12-18T01:18:33;-3.68;88.15
69006;SHT31;56061;51.748;19.620;2022-12-18T01:21:00;-3.65;88.09
69006;SHT31;56061;51.748;19.620;2022-12-18T01:23:36;-3.60;88.10
69006;SHT31;56061;51.748;19.620;2022-12-18T01:26:04;-3.56;88.09
69006;SHT31;56061;51.748;19.620;2022-12-18T01:28:36;-3.52;88.02
69006;SHT31;56061;51.748;19.620;2022-12-18T01:31:13;-3.54;87.86
69006;SHT31;56061;51.748;19.620;2022-12-18T01:33:55;-3.58;87.90
69006;SHT31;56061;51.748;19.620;2022-12-18T01:36:23;-3.60;87.98
69006;SHT31;56061;51.748;19.620;2022-12-18T01:38:53;-3.62;87.97
69006;SHT31;56061;51.748;19.620;2022-12-18T01:41:21;-3.65;87.97
69006;SHT31;56061;51.748;19.620;2022-12-18T01:43:53;-3.65;87.98
69006;SHT31;56061;51.748;19.620;2022-12-18T01:46:26;-3.65;87.97
69006;SHT31;56061;51.748;19.620;2022-12-18T01:48:54;-3.63;87.97
69006;SHT31;56061;51.748;19.620;2022-12-18T01:51:25;-3.63;87.89
69006;SHT31;56061;51.748;19.620;2022-12-18T01:53:54;-3.63;87.90
69006;SHT31;56061;51.748;19.620;2022-12-18T01:56:21;-3.64;87.89
69006;SHT31;56061;51.748;19.620;2022-12-18T02:01:32;-3.75;87.75
69006;SHT31;56061;51.748;19.620;2022-12-18T02:04:18;-3.80;87.80
69006;SHT31;56061;51.748;19.620;2022-12-18T02:07:14;-3.83;87.90
69006;SHT31;56061;51.748;19.620;2022-12-18T02:09:54;-3.85;87.95
69006;SHT31;56061;51.748;19.620;2022-12-18T02:12:33;-3.82;88.04
69006;SHT31;56061;51.748;19.620;2022-12-18T02:15:19;-3.75;88.09
69006;SHT31;56061;51.748;19.620;2022-12-18T02:18:08;-3.69;88.01
69006;SHT31;56061;51.748;19.620;2022-12-18T02:24:12;-3.68;87.74
69006;SHT31;56061;51.748;19.620;2022-12-18T02:27:06;-3.72;87.77
69006;SHT31;56061;51.748;19.620;2022-12-18T02:29:52;-3.75;87.71
69006;SHT31;56061;51.748;19.620;2022-12-18T02:32:26;-3.81;87.77
69006;SHT31;56061;51.748;19.620;2022-12-18T02:34:59;-3.84;87.81
69006;SHT31;56061;51.748;19.620;2022-12-18T02:37:28;-3.87;87.76
69006;SHT31;56061;51.748;19.620;2022-12-18T02:39:57;-3.89;87.68
69006;SHT31;56061;51.748;19.620;2022-12-18T02:42:26;-3.91;87.76
69006;SHT31;56061;51.748;19.620;2022-12-18T02:44:54;-3.91;87.80
69006;SHT31;56061;51.748;19.620;2022-12-18T02:47:21;-3.90;87.88
69006;SHT31;56061;51.748;19.620;2022-12-18T02:49:58;-3.90;87.88
69006;SHT31;56061;51.748;19.620;2022-12-18T02:52:35;-3.91;87.89
69006;SHT31;56061;51.748;19.620;2022-12-18T03:01:14;-3.99;87.92
69006;SHT31;56061;51.748;19.620;2022-12-18T03:04:20;-4.02;87.90
69006;SHT31;56061;51.748;19.620;2022-12-18T03:06:54;-4.02;87.96
69006;SHT31;56061;51.748;19.620;2022-12-18T03:09:32;-4.03;87.89
69006;SHT31;56061;51.748;19.620;2022-12-18T03:12:08;-4.00;87.92
69006;SHT31;56061;51.748;19.620;2022-12-18T03:15:00;-3.97;88.01
69006;SHT31;56061;51.748;19.620;2022-12-18T03:17:48;-3.93;88.01
69006;SHT31;56061;51.748;19.620;2022-12-18T03:20:23;-3.90;88.00
69006;SHT31;56061;51.748;19.620;2022-12-18T03:22:55;-3.90;87.89
69006;SHT31;56061;51.748;19.620;2022-12-18T03:25:32;-3.91;88.00
69006;SHT31;56061;51.748;19.620;2022-12-18T03:28:07;-3.93;87.90
69006;SHT31;56061;51.748;19.620;2022-12-18T03:30:41;-3.94;87.93
69006;SHT31;56061;51.748;19.620;2022-12-18T03:33:14;-3.97;87.91
69006;SHT31;56061;51.748;19.620;2022-12-18T03:35:49;-3.95;88.00
69006;SHT31;56061;51.748;19.620;2022-12-18T03:38:16;-3.91;88.05
69006;SHT31;56061;51.748;19.620;2022-12-18T03:52:11;-3.81;87.88
69006;SHT31;56061;51.748;19.620;2022-12-18T03:54:46;-3.83;87.79
69006;SHT31;56061;51.748;19.620;2022-12-18T03:57:16;-3.83;87.80
69006;SHT31;56061;51.748;19.620;2022-12-18T03:59:52;-3.84;87.77
69006;SHT31;56061;51.748;19.620;2022-12-18T04:02:25;-3.87;87.74
69006;SHT31;56061;51.748;19.620;2022-12-18T04:04:53;-3.89;87.70
69006;SHT31;56061;51.748;19.620;2022-12-18T04:07:25;-3.91;87.79
69006;SHT31;56061;51.748;19.620;2022-12-18T04:09:55;-3.92;87.83
69006;SHT31;56061;51.748;19.620;2022-12-18T04:12:28;-3.91;87.80
69006;SHT31;56061;51.748;19.620;2022-12-18T04:14:56;-3.90;87.72
69006;SHT31;56061;51.748;19.620;2022-12-18T04:17:22;-3.91;87.62
69006;SHT31;56061;51.748;19.620;2022-12-18T04:19:49;-3.92;87.52
69006;SHT31;56061;51.748;19.620;2022-12-18T04:22:16;-3.91;87.59
69006;SHT31;56061;51.748;19.620;2022-12-18T04:24:45;-3.90;87.65
69006;SHT31;56061;51.748;19.620;2022-12-18T04:27:12;-3.91;87.58
69006;SHT31;56061;51.748;19.620;2022-12-18T04:29:39;-3.92;87.70
69006;SHT31;56061;51.748;19.620;2022-12-18T04:32:05;-3.91;87.72
69006;SHT31;56061;51.748;19.620;2022-12-18T04:34:32;-3.93;87.75
69006;SHT31;56061;51.748;19.620;2022-12-18T04:36:58;-3.93;87.78
69006;SHT31;56061;51.748;19.620;2022-12-18T04:39:24;-3.95;87.70
69006;SHT31;56061;51.748;19.620;2022-12-18T04:41:51;-3.97;87.79
69006;SHT31;56061;51.748;19.620;2022-12-18T04:44:18;-3.99;87.81
69006;SHT31;56061;51.748;19.620;2022-12-18T04:46:44;-4.02;87.82
69006;SHT31;56061;51.748;19.620;2022-12-18T04:49:11;-4.03;87.87
69006;SHT31;56061;51.748;19.620;2022-12-18T04:51:38;-4.01;87.90
69006;SHT31;56061;51.748;19.620;2022-12-18T04:54:07;-3.97;87.83
69006;SHT31;56061;51.748;19.620;2022-12-18T04:56:34;-3.93;87.95
69006;SHT31;56061;51.748;19.620;2022-12-18T04:59:00;-3.86;87.86
69006;SHT31;56061;51.748;19.620;2022-12-18T05:01:27;-3.82;87.73
69006;SHT31;56061;51.748;19.620;2022-12-18T05:04:00;-3.83;87.68
69006;SHT31;56061;51.748;19.620;2022-12-18T05:06:28;-3.85;87.57
69006;SHT31;56061;51.748;19.620;2022-12-18T05:08:57;-3.86;87.67
69006;SHT31;56061;51.748;19.620;2022-12-18T05:11:24;-3.86;87.73
69006;SHT31;56061;51.748;19.620;2022-12-18T05:13:50;-3.91;87.55
69006;SHT31;56061;51.748;19.620;2022-12-18T05:16:17;-3.95;87.61
69006;SHT31;56061;51.748;19.620;2022-12-18T05:18:43;-3.99;87.58
69006;SHT31;56061;51.748;19.620;2022-12-18T05:21:10;-4.05;87.55
69006;SHT31;56061;51.748;19.620;2022-12-18T05:23:36;-4.04;87.74
69006;SHT31;56061;51.748;19.620;2022-12-18T05:26:05;-4.02;87.80
69006;SHT31;56061;51.748;19.620;2022-12-18T05:28:34;-3.98;87.82
69006;SHT31;56061;51.748;19.620;2022-12-18T05:31:02;-3.92;87.83
69006;SHT31;56061;51.748;19.620;2022-12-18T05:33:31;-3.90;87.73
69006;SHT31;56061;51.748;19.620;2022-12-18T05:36:00;-3.90;87.68
69006;SHT31;56061;51.748;19.620;2022-12-18T05:38:30;-3.90;87.68
69006;SHT31;56061;51.748;19.620;2022-12-18T05:40:58;-3.91;87.67
69006;SHT31;56061;51.748;19.620;2022-12-18T05:43:25;-3.93;87.66
69006;SHT31;56061;51.748;19.620;2022-12-18T05:45:53;-3.96;87.62
69006;SHT31;56061;51.748;19.620;2022-12-18T05:48:21;-4.00;87.66
69006;SHT31;56061;51.748;19.620;2022-12-18T05:50:49;-4.03;87.64
69006;SHT31;56061;51.748;19.620;2022-12-18T05:53:17;-4.07;87.69
69006;SHT31;56061;51.748;19.620;2022-12-18T05:55:46;-4.09;87.80
69006;SHT31;56061;51.748;19.620;2022-12-18T05:58:13;-4.10;87.79
69006;SHT31;56061;51.748;19.620;2022-12-18T06:00:42;-4.09;87.72
69006;SHT31;56061;51.748;19.620;2022-12-18T06:03:12;-4.06;87.76
69006;SHT31;56061;51.748;19.620;2022-12-18T06:05:40;-4.01;87.79
69006;SHT31;56061;51.748;19.620;2022-12-18T06:08:10;-3.97;87.77
69006;SHT31;56061;51.748;19.620;2022-12-18T06:10:39;-3.94;87.70
69006;SHT31;56061;51.748;19.620;2022-12-18T06:13:07;-3.93;87.70
69006;SHT31;56061;51.748;19.620;2022-12-18T06:15:35;-3.92;87.62
69006;SHT31;56061;51.748;19.620;2022-12-18T06:18:03;-3.92;87.67
69006;SHT31;56061;51.748;19.620;2022-12-18T06:20:30;-3.92;87.60
69006;SHT31;56061;51.748;19.620;2022-12-18T06:22:59;-3.93;87.61
69006;SHT31;56061;51.748;19.620;2022-12-18T06:25:26;-3.94;87.61
69006;SHT31;56061;51.748;19.620;2022-12-18T06:27:52;-3.95;87.66
69006;SHT31;56061;51.748;19.620;2022-12-18T06:30:19;-3.96;87.70
69006;SHT31;56061;51.748;19.620;2022-12-18T06:32:47;-3.99;87.70
69006;SHT31;56061;51.748;19.620;2022-12-18T06:35:21;-4.01;87.69
69006;SHT31;56061;51.748;19.620;2022-12-18T06:37:48;-4.01;87.69
69006;SHT31;56061;51.748;19.620;2022-12-18T06:40:15;-4.01;87.63
69006;SHT31;56061;51.748;19.620;2022-12-18T06:42:42;-3.97;87.61
69006;SHT31;56061;51.748;19.620;2022-12-18T06:45:09;-3.94;87.62
69006;SHT31;56061;51.748;19.620;2022-12-18T06:47:37;-3.92;87.56
69006;SHT31;56061;51.748;19.620;2022-12-18T06:50:03;-3.87;87.60
69006;SHT31;56061;51.748;19.620;2022-12-18T06:52:31;-3.85;87.53
69006;SHT31;56061;51.748;19.620;2022-12-18T06:54:59;-3.84;87.53
69006;SHT31;56061;51.748;19.620;2022-12-18T06:57:26;-3.82;87.51
69006;SHT31;56061;51.748;19.620;2022-12-18T06:59:53;-3.83;87.41
69006;SHT31;56061;51.748;19.620;2022-12-18T07:02:20;-3.87;87.28
69006;SHT31;56061;51.748;19.620;2022-12-18T07:04:47;-3.92;87.20
69006;SHT31;56061;51.748;19.620;2022-12-18T07:07:13;-3.96;87.20
69006;SHT31;56061;51.748;19.620;2022-12-18T07:09:40;-4.03;87.13
69006;SHT31;56061;51.748;19.620;2022-12-18T07:12:06;-4.05;87.20
69006;SHT31;56061;51.748;19.620;2022-12-18T07:14:34;-4.04;87.34
69006;SHT31;56061;51.748;19.620;2022-12-18T07:17:00;-3.98;87.46
69006;SHT31;56061;51.748;19.620;2022-12-18T07:19:27;-3.92;87.44
69006;SHT31;56061;51.748;19.620;2022-12-18T07:21:54;-3.88;87.34
69006;SHT31;56061;51.748;19.620;2022-12-18T07:24:20;-3.85;87.24
69006;SHT31;56061;51.748;19.620;2022-12-18T07:26:47;-3.83;87.20
69006;SHT31;56061;51.748;19.620;2022-12-18T07:29:13;-3.80;87.19
69006;SHT31;56061;51.748;19.620;2022-12-18T07:31:40;-3.79;87.08
69006;SHT31;56061;51.748;19.620;2022-12-18T07:34:09;-3.79;87.00
69006;SHT31;56061;51.748;19.620;2022-12-18T07:36:41;-3.78;87.00
69006;SHT31;56061;51.748;19.620;2022-12-18T07:39:08;-3.78;87.00
69006;SHT31;56061;51.748;19.620;2022-12-18T07:41:36;-3.75;87.04
69006;SHT31;56061;51.748;19.620;2022-12-18T07:44:10;-3.73;86.90
69006;SHT31;56061;51.748;19.620;2022-12-18T07:46:37;-3.74;86.80
69006;SHT31;56061;51.748;19.620;2022-12-18T07:49:04;-3.71;86.84
69006;SHT31;56061;51.748;19.620;2022-12-18T07:51:30;-3.63;86.90
69006;SHT31;56061;51.748;19.620;2022-12-18T07:53:57;-3.55;86.79
69006;SHT31;56061;51.748;19.620;2022-12-18T07:56:23;-3.47;86.65
69006;SHT31;56061;51.748;19.620;2022-12-18T07:58:55;-3.42;86.49
69006;SHT31;56061;51.748;19.620;2022-12-18T08:01:22;-3.38;86.35
69006;SHT31;56061;51.748;19.620;2022-12-18T08:03:50;-3.37;86.22
69006;SHT31;56061;51.748;19.620;2022-12-18T08:06:17;-3.39;86.14
69006;SHT31;56061;51.748;19.620;2022-12-18T08:08:50;-3.41;86.05
69006;SHT31;56061;51.748;19.620;2022-12-18T08:11:22;-3.40;86.00
69006;SHT31;56061;51.748;19.620;2022-12-18T08:13:51;-3.38;86.10
69006;SHT31;56061;51.748;19.620;2022-12-18T08:16:18;-3.35;86.07
69006;SHT31;56061;51.748;19.620;2022-12-18T08:18:46;-3.30;86.10
69006;SHT31;56061;51.748;19.620;2022-12-18T08:21:24;-3.27;86.01
69006;SHT31;56061;51.748;19.620;2022-12-18T08:23:54;-3.23;85.94
69006;SHT31;56061;51.748;19.620;2022-12-18T08:26:26;-3.19;85.93
69006;SHT31;56061;51.748;19.620;2022-12-18T08:28:56;-3.13;85.92
69006;SHT31;56061;51.748;19.620;2022-12-18T08:31:25;-3.07;85.72
69006;SHT31;56061;51.748;19.620;2022-12-18T08:33:54;-3.02;85.66
69006;SHT31;56061;51.748;19.620;2022-12-18T08:36:22;-2.99;85.50
69006;SHT31;56061;51.748;19.620;2022-12-18T08:38:50;-2.96;85.38
69006;SHT31;56061;51.748;19.620;2022-12-18T08:41:17;-2.95;85.26
69006;SHT31;56061;51.748;19.620;2022-12-18T08:43:44;-2.95;85.19
69006;SHT31;56061;51.748;19.620;2022-12-18T08:46:37;-2.93;85.13
69006;SHT31;56061;51.748;19.620;2022-12-18T08:49:07;-2.96;84.99
69006;SHT31;56061;51.748;19.620;2022-12-18T08:51:36;-2.99;84.98
69006;SHT31;56061;51.748;19.620;2022-12-18T08:54:03;-3.01;84.86
69006;SHT31;56061;51.748;19.620;2022-12-18T08:56:31;-3.01;84.86
69006;SHT31;56061;51.748;19.620;2022-12-18T08:58:59;-3.02;84.95
69006;SHT31;56061;51.748;19.620;2022-12-18T09:01:26;-3.03;84.82
69006;SHT31;56061;51.748;19.620;2022-12-18T09:03:53;-3.03;84.85
69006;SHT31;56061;51.748;19.620;2022-12-18T09:06:20;-3.04;84.70
69006;SHT31;56061;51.748;19.620;2022-12-18T09:08:48;-3.01;84.76
69006;SHT31;56061;51.748;19.620;2022-12-18T09:11:19;-2.96;84.63
69006;SHT31;56061;51.748;19.620;2022-12-18T09:13:49;-2.93;84.49
69006;SHT31;56061;51.748;19.620;2022-12-18T09:16:17;-2.91;84.33
69006;SHT31;56061;51.748;19.620;2022-12-18T09:18:46;-2.91;84.33
69006;SHT31;56061;51.748;19.620;2022-12-18T09:21:14;-2.87;84.28
69006;SHT31;56061;51.748;19.620;2022-12-18T09:23:49;-2.86;84.19
69006;SHT31;56061;51.748;19.620;2022-12-18T09:26:16;-2.83;84.16
69006;SHT31;56061;51.748;19.620;2022-12-18T09:28:43;-2.81;84.11
69006;SHT31;56061;51.748;19.620;2022-12-18T09:31:10;-2.79;84.07
69006;SHT31;56061;51.748;19.620;2022-12-18T09:33:39;-2.79;83.91
69006;SHT31;56061;51.748;19.620;2022-12-18T09:36:06;-2.79;83.86
69006;SHT31;56061;51.748;19.620;2022-12-18T09:38:36;-2.80;83.97
69006;SHT31;56061;51.748;19.620;2022-12-18T09:44:18;-2.77;84.00
69006;SHT31;56061;51.748;19.620;2022-12-18T09:47:11;-2.76;83.91
69006;SHT31;56061;51.748;19.620;2022-12-18T09:50:05;-2.79;83.70
69006;SHT31;56061;51.748;19.620;2022-12-18T09:52:49;-2.79;83.72
69006;SHT31;56061;51.748;19.620;2022-12-18T10:01:14;-2.72;83.50
69006;SHT31;56061;51.748;19.620;2022-12-18T10:03:47;-2.70;83.31
69006;SHT31;56061;51.748;19.620;2022-12-18T10:06:18;-2.76;82.96
69006;SHT31;56061;51.748;19.620;2022-12-18T10:08:59;-2.82;82.98
69006;SHT31;56061;51.748;19.620;2022-12-18T10:15:13;-2.90;83.08
69006;SHT31;56061;51.748;19.620;2022-12-18T10:18:22;-2.90;83.16
69006;SHT31;56061;51.748;19.620;2022-12-18T10:21:10;-2.91;83.16
69006;SHT31;56061;51.748;19.620;2022-12-18T10:23:54;-2.96;83.04
69006;SHT31;56061;51.748;19.620;2022-12-18T10:26:29;-3.03;83.05
69006;SHT31;56061;51.748;19.620;2022-12-18T10:28:58;-3.08;83.13
69006;SHT31;56061;51.748;19.620;2022-12-18T10:31:31;-3.09;83.39
69006;SHT31;56061;51.748;19.620;2022-12-18T10:33:57;-3.05;83.25
69006;SHT31;56061;51.748;19.620;2022-12-18T10:36:24;-3.04;83.17
69006;SHT31;56061;51.748;19.620;2022-12-18T10:38:51;-3.02;83.19
69006;SHT31;56061;51.748;19.620;2022-12-18T10:43:47;-2.96;83.08
69006;SHT31;56061;51.748;19.620;2022-12-18T10:46:15;-2.96;83.18
69006;SHT31;56061;51.748;19.620;2022-12-18T10:51:19;-2.91;83.27
69006;SHT31;56061;51.748;19.620;2022-12-18T10:53:57;-2.91;83.14
69006;SHT31;56061;51.748;19.620;2022-12-18T10:56:33;-2.91;83.15
69006;SHT31;56061;51.748;19.620;2022-12-18T10:59:04;-2.91;83.08
69006;SHT31;56061;51.748;19.620;2022-12-18T11:01:46;-2.95;83.03
69006;SHT31;56061;51.748;19.620;2022-12-18T11:04:17;-2.95;83.23
69006;SHT31;56061;51.748;19.620;2022-12-18T11:06:52;-2.95;83.13
69006;SHT31;56061;51.748;19.620;2022-12-18T11:09:30;-2.98;83.08
69006;SHT31;56061;51.748;19.620;2022-12-18T11:12:02;-2.96;83.09
69006;SHT31;56061;51.748;19.620;2022-12-18T11:14:47;-2.97;82.90
69006;SHT31;56061;51.748;19.620;2022-12-18T11:19:58;-2.91;83.10
69006;SHT31;56061;51.748;19.620;2022-12-18T11:22:29;-2.87;82.94
69006;SHT31;56061;51.748;19.620;2022-12-18T11:25:04;-2.92;82.40
69006;SHT31;56061;51.748;19.620;2022-12-18T11:31:41;-3.07;82.59
69006;SHT31;56061;51.748;19.620;2022-12-18T11:33:59;-3.08;82.87
69006;SHT31;56061;51.748;19.620;2022-12-18T11:36:47;-3.06;82.82
69006;SHT31;56061;51.748;19.620;2022-12-18T11:44:55;-3.11;82.96
69006;SHT31;56061;51.748;19.620;2022-12-18T11:50:57;-3.12;82.86
69006;SHT31;56061;51.748;19.620;2022-12-18T11:53:27;-3.15;82.81
69006;SHT31;56061;51.748;19.620;2022-12-18T11:56:00;-3.16;82.85
69006;SHT31;56061;51.748;19.620;2022-12-18T11:58:56;-3.17;82.89
69006;SHT31;56061;51.748;19.620;2022-12-18T12:01:47;-3.19;82.62
69006;SHT31;56061;51.748;19.620;2022-12-18T12:04:24;-3.24;82.59
69006;SHT31;56061;51.748;19.620;2022-12-18T12:10:17;-3.25;82.97
69006;SHT31;56061;51.748;19.620;2022-12-18T12:15:59;-3.29;82.86
69006;SHT31;56061;51.748;19.620;2022-12-18T12:18:54;-3.34;82.91
69006;SHT31;56061;51.748;19.620;2022-12-18T12:28:44;-3.57;82.93
69006;SHT31;56061;51.748;19.620;2022-12-18T12:31:41;-3.63;83.17
69006;SHT31;56061;51.748;19.620;2022-12-18T12:40:20;-3.71;83.33
69006;SHT31;56061;51.748;19.620;2022-12-18T12:46:15;-3.75;83.42
69006;SHT31;56061;51.748;19.620;2022-12-18T12:51:27;-3.72;83.55
69006;SHT31;56061;51.748;19.620;2022-12-18T12:54:00;-3.69;83.77
69006;SHT31;56061;51.748;19.620;2022-12-18T12:59:22;-3.61;83.86
69006;SHT31;56061;51.748;19.620;2022-12-18T13:02:35;-3.60;83.70
69006;SHT31;56061;51.748;19.620;2022-12-18T13:08:21;-3.63;83.55
69006;SHT31;56061;51.748;19.620;2022-12-18T13:10:57;-3.69;83.64
69006;SHT31;56061;51.748;19.620;2022-12-18T13:13:49;-3.77;83.48
69006;SHT31;56061;51.748;19.620;2022-12-18T13:16:22;-3.85;83.64
69006;SHT31;56061;51.748;19.620;2022-12-18T13:18:51;-3.93;83.79
69006;SHT31;56061;51.748;19.620;2022-12-18T13:21:24;-3.97;84.02
69006;SHT31;56061;51.748;19.620;2022-12-18T13:24:14;-3.98;84.14
69006;SHT31;56061;51.748;19.620;2022-12-18T13:26:51;-4.00;84.15
69006;SHT31;56061;51.748;19.620;2022-12-18T13:32:19;-4.03;84.36
69006;SHT31;56061;51.748;19.620;2022-12-18T13:37:51;-4.01;84.63
69006;SHT31;56061;51.748;19.620;2022-12-18T13:40:46;-4.02;84.61
69006;SHT31;56061;51.748;19.620;2022-12-18T13:45:49;-4.05;84.55
69006;SHT31;56061;51.748;19.620;2022-12-18T13:48:26;-4.09;84.55
69006;SHT31;56061;51.748;19.620;2022-12-18T13:50:57;-4.14;84.65
69006;SHT31;56061;51.748;19.620;2022-12-18T13:53:36;-4.19;84.70
69006;SHT31;56061;51.748;19.620;2022-12-18T13:56:15;-4.25;84.72
69006;SHT31;56061;51.748;19.620;2022-12-18T13:58:43;-4.30;84.86
69006;SHT31;56061;51.748;19.620;2022-12-18T14:01:23;-4.31;84.87
69006;SHT31;56061;51.748;19.620;2022-12-18T14:03:50;-4.37;84.61
69006;SHT31;56061;51.748;19.620;2022-12-18T14:06:18;-4.44;84.56
69006;SHT31;56061;51.748;19.620;2022-12-18T14:08:45;-4.52;84.44
69006;SHT31;56061;51.748;19.620;2022-12-18T14:11:20;-4.58;84.56
69006;SHT31;56061;51.748;19.620;2022-12-18T14:13:51;-4.64;84.70
69006;SHT31;56061;51.748;19.620;2022-12-18T14:16:18;-4.71;84.86
69006;SHT31;56061;51.748;19.620;2022-12-18T14:21:29;-4.88;84.99
69006;SHT31;56061;51.748;19.620;2022-12-18T14:24:12;-4.95;85.10
69006;SHT31;56061;51.748;19.620;2022-12-18T14:26:45;-5.06;85.13
69006;SHT31;56061;51.748;19.620;2022-12-18T14:29:20;-5.13;85.38
69006;SHT31;56061;51.748;19.620;2022-12-18T14:34:51;-5.24;85.68
69006;SHT31;56061;51.748;19.620;2022-12-18T14:37:25;-5.31;85.74
69006;SHT31;56061;51.748;19.620;2022-12-18T14:39:57;-5.35;85.93
69006;SHT31;56061;51.748;19.620;2022-12-18T14:42:35;-5.39;85.95
69006;SHT31;56061;51.748;19.620;2022-12-18T14:48:15;-5.39;86.26
69006;SHT31;56061;51.748;19.620;2022-12-18T14:50:56;-5.36;86.30
69006;SHT31;56061;51.748;19.620;2022-12-18T14:53:40;-5.30;86.22
69006;SHT31;56061;51.748;19.620;2022-12-18T14:56:23;-5.29;86.15
69006;SHT31;56061;51.748;19.620;2022-12-18T14:58:54;-5.26;86.18
69006;SHT31;56061;51.748;19.620;2022-12-18T15:01:25;-5.25;86.12
69006;SHT31;56061;51.748;19.620;2022-12-18T15:03:56;-5.22;86.11
69006;SHT31;56061;51.748;19.620;2022-12-18T15:06:26;-5.19;86.05
69006;SHT31;56061;51.748;19.620;2022-12-18T15:09:01;-5.19;85.96
69006;SHT31;56061;51.748;19.620;2022-12-18T15:11:46;-5.16;86.01
69006;SHT31;56061;51.748;19.620;2022-12-18T15:14:24;-5.16;85.91
69006;SHT31;56061;51.748;19.620;2022-12-18T15:17:21;-5.18;85.96
69006;SHT31;56061;51.748;19.620;2022-12-18T15:19:52;-5.23;85.89
69006;SHT31;56061;51.748;19.620;2022-12-18T15:22:32;-5.30;85.94
69006;SHT31;56061;51.748;19.620;2022-12-18T15:25:03;-5.38;85.85
69006;SHT31;56061;51.748;19.620;2022-12-18T15:27:57;-5.44;86.07
69006;SHT31;56061;51.748;19.620;2022-12-18T15:30:24;-5.50;86.17
69006;SHT31;56061;51.748;19.620;2022-12-18T15:32:52;-5.53;86.36
69006;SHT31;56061;51.748;19.620;2022-12-18T15:36:01;-5.59;86.36
69006;SHT31;56061;51.748;19.620;2022-12-18T15:38:31;-5.67;86.30
69006;SHT31;56061;51.748;19.620;2022-12-18T15:40:58;-5.76;86.30
69006;SHT31;56061;51.748;19.620;2022-12-18T15:43:26;-5.80;86.45
69006;SHT31;56061;51.748;19.620;2022-12-18T15:46:04;-5.82;86.53
69006;SHT31;56061;51.748;19.620;2022-12-18T15:48:37;-5.81;86.75
69006;SHT31;56061;51.748;19.620;2022-12-18T15:51:20;-5.77;86.80
69006;SHT31;56061;51.748;19.620;2022-12-18T15:53:55;-5.76;86.80
69006;SHT31;56061;51.748;19.620;2022-12-18T15:56:26;-5.73;86.93
69006;SHT31;56061;51.748;19.620;2022-12-18T15:59:12;-5.65;87.00
69006;SHT31;56061;51.748;19.620;2022-12-18T16:01:48;-5.60;86.97
69006;SHT31;56061;51.748;19.620;2022-12-18T16:04:19;-5.53;86.93
69006;SHT31;56061;51.748;19.620;2022-12-18T16:06:48;-5.51;86.66
69006;SHT31;56061;51.748;19.620;2022-12-18T16:09:35;-5.51;86.60
69006;SHT31;56061;51.748;19.620;2022-12-18T16:12:03;-5.47;86.66
69006;SHT31;56061;51.748;19.620;2022-12-18T16:14:30;-5.46;86.50
69006;SHT31;56061;51.748;19.620;2022-12-18T16:16:59;-5.48;86.36
69006;SHT31;56061;51.748;19.620;2022-12-18T16:19:29;-5.57;86.11
69006;SHT31;56061;51.748;19.620;2022-12-18T16:21:56;-5.64;86.20
69006;SHT31;56061;51.748;19.620;2022-12-18T16:24:25;-5.69;86.34
69006;SHT31;56061;51.748;19.620;2022-12-18T16:26:57;-5.72;86.55
69006;SHT31;56061;51.748;19.620;2022-12-18T16:29:26;-5.74;86.61
69006;SHT31;56061;51.748;19.620;2022-12-18T16:31:58;-5.78;86.71
69006;SHT31;56061;51.748;19.620;2022-12-18T16:34:27;-5.83;86.80
69006;SHT31;56061;51.748;19.620;2022-12-18T16:37:01;-5.88;86.88
69006;SHT31;56061;51.748;19.620;2022-12-18T16:39:32;-5.93;86.98
69006;SHT31;56061;51.748;19.620;2022-12-18T16:42:05;-5.98;87.05
69006;SHT31;56061;51.748;19.620;2022-12-18T16:44:45;-6.04;87.08
69006;SHT31;56061;51.748;19.620;2022-12-18T16:47:14;-6.02;87.25
69006;SHT31;56061;51.748;19.620;2022-12-18T16:49:42;-5.99;87.37
69006;SHT31;56061;51.748;19.620;2022-12-18T16:52:11;-5.96;87.38
69006;SHT31;56061;51.748;19.620;2022-12-18T16:54:38;-5.93;87.30
69006;SHT31;56061;51.748;19.620;2022-12-18T16:57:04;-5.90;87.34
69006;SHT31;56061;51.748;19.620;2022-12-18T16:59:31;-5.86;87.35
69006;SHT31;56061;51.748;19.620;2022-12-18T17:01:57;-5.83;87.23
69006;SHT31;56061;51.748;19.620;2022-12-18T17:04:24;-5.80;87.26
69006;SHT31;56061;51.748;19.620;2022-12-18T17:06:50;-5.76;87.23
69006;SHT31;56061;51.748;19.620;2022-12-18T17:09:19;-5.72;87.26
69006;SHT31;56061;51.748;19.620;2022-12-18T17:11:50;-5.70;87.18
69006;SHT31;56061;51.748;19.620;2022-12-18T17:14:20;-5.67;87.11
69006;SHT31;56061;51.748;19.620;2022-12-18T17:16:48;-5.69;87.02
69006;SHT31;56061;51.748;19.620;2022-12-18T17:19:36;-5.69;87.04
69006;SHT31;56061;51.748;19.620;2022-12-18T17:22:02;-5.68;87.02
69006;SHT31;56061;51.748;19.620;2022-12-18T17:24:30;-5.67;87.01
69006;SHT31;56061;51.748;19.620;2022-12-18T17:27:00;-5.67;86.90
69006;SHT31;56061;51.748;19.620;2022-12-18T17:29:27;-5.68;86.90
69006;SHT31;56061;51.748;19.620;2022-12-18T17:31:53;-5.68;86.81